Time;durP1;ratioP1;P1;durP2;ratioP2;P2;SDS_P1;SDS_P2;PMS_P1;PMS_P2;Temp;Humidity;BMP_temperature;BMP_pressure;BME280_temperature;BME280_humidity;BME280_pressure;Samples;Min_cycle;Max_cycle;Signal;HPM_P1;HPM_P2
2020/12/30 00:00:21;;;;;;;;;;;;;;;;;;5014117;28;856;-71
2020/12/30 00:02:46;;;;;;;;;;;;;;;;;;5014059;28;861;-72
2020/12/30 00:05:11;;;;;;;;;;;;;;;;;;5013042;28;1381;-71
2020/12/30 00:07:37;;;;;;;;;;;;;;;;;;5012510;28;1890;-69
2020/12/30 00:10:08;;;;;;;;;;;;;;;;;;5012759;28;798;-70
2020/12/30 00:12:34;;;;;;;;;;;;;;;;;;5012693;28;916;-67
2020/12/30 00:14:59;;;;;;;;;;;;;;;;;;5013739;28;1302;-72
2020/12/30 00:17:25;;;;;;;;;;;;;;;;;;5012600;28;1065;-69
2020/12/30 00:19:50;;;;;;;;;;;;;;;;;;5013898;28;880;-72
2020/12/30 00:22:16;;;;;;;;;;;;;;;;;;5013965;28;947;-71
2020/12/30 00:24:41;;;;;;;;;;;;;;;;;;5013853;28;1326;-71
2020/12/30 00:27:06;;;;;;;;;;;;;;;;;;5012518;28;1894;-71
2020/12/30 00:29:32;;;;;;;;;;;;;;;;;;5013961;28;875;-73
2020/12/30 00:31:57;;;;;;;;;;;;;;;;;;5018149;28;948;-69
2020/12/30 00:34:22;;;;;;;;;;;;;;;;;;5018119;28;1342;-68
2020/12/30 00:36:48;;;;;;;;;;;;;;;;;;5018290;28;893;-71
2020/12/30 00:39:13;;;;;;;;;;;;;;;;;;5017955;28;1039;-68
2020/12/30 00:41:38;;;;;;;;;;;;;;;;;;5017963;28;1055;-71
2020/12/30 00:44:03;;;;;;;;;;;;;;;;;;5016765;28;1419;-72
2020/12/30 00:46:28;;;;;;;;;;;;;;;;;;5016769;28;1378;-70
2020/12/30 00:48:54;;;;;;;;;;;;;;;;;;5018116;28;1910;-71
2020/12/30 00:51:19;;;;;;;;;;;;;;;;;;5016469;28;1231;-70
2020/12/30 00:53:44;;;;;;;;;;;;;;;;;;5016416;28;881;-71
2020/12/30 00:56:10;;;;;;;;;;;;;;;;;;5017796;28;1330;-69
2020/12/30 00:58:35;;;;;;;;;;;;;;;;;;5017725;28;893;-69
2020/12/30 01:01:02;;;;;;;;;;;;;;;;;;5017644;28;887;-72
2020/12/30 01:03:27;;;;;;;;;;;;;;;;;;5017672;28;1011;-70
2020/12/30 01:05:52;;;;;;;;;;;;;;;;;;5017565;28;1401;-71
2020/12/30 01:08:19;;;;;;;;;;;;;;;;;;5016450;28;1898;-68
2020/12/30 01:10:44;;;;;;;;;;;;;;;;;;5017521;28;845;-71
2020/12/30 01:13:09;;;;;;;;;;;;;;;;;;5017634;28;873;-72
2020/12/30 01:15:35;;;;;;;;;;;;;;;;;;5015843;28;1349;-70
2020/12/30 01:18:00;;;;;;;;;;;;;;;;;;5017407;28;859;-72
2020/12/30 01:20:25;;;;;;;;;;;;;;;;;;5017260;28;900;-68
2020/12/30 01:22:50;;;;;;;;;;;;;;;;;;5016378;28;1530;-72
2020/12/30 01:25:15;;;;;;;;;;;;;;;;;;5017265;28;1337;-69
2020/12/30 01:27:41;;;;;;;;;;;;;;;;;;5016038;28;1963;-71
2020/12/30 01:30:06;;;;;;;;;;;;;;;;;;5015787;28;1141;-70
2020/12/30 01:32:31;;;;;;;;;;;;;;;;;;5017081;28;932;-71
2020/12/30 01:34:57;;;;;;;;;;;;;;;;;;5017056;28;1413;-68
2020/12/30 01:37:23;;;;;;;;;;;;;;;;;;5016926;28;913;-72
2020/12/30 01:39:48;;;;;;;;;;;;;;;;;;5015884;28;823;-70
2020/12/30 01:42:14;;;;;;;;;;;;;;;;;;5016804;28;863;-71
2020/12/30 01:44:39;;;;;;;;;;;;;;;;;;5016597;28;1445;-68
2020/12/30 01:47:04;;;;;;;;;;;;;;;;;;5016797;28;927;-70
2020/12/30 01:49:30;;;;;;;;;;;;;;;;;;5016822;28;1894;-71
2020/12/30 01:51:55;;;;;;;;;;;;;;;;;;5016827;28;889;-71
2020/12/30 01:54:21;;;;;;;;;;;;;;;;;;5016938;28;1412;-72
2020/12/30 01:56:46;;;;;;;;;;;;;;;;;;5016661;28;806;-71
2020/12/30 01:59:15;;;;;;;;;;;;;;;;;;5016493;28;874;-72
2020/12/30 02:01:42;;;;;;;;;;;;;;;;;;5015457;28;1131;-71
2020/12/30 02:04:09;;;;;;;;;;;;;;;;;;5016529;28;860;-71
2020/12/30 02:06:35;;;;;;;;;;;;;;;;;;5015136;28;1316;-72
2020/12/30 02:09:00;;;;;;;;;;;;;;;;;;5015220;28;1957;-71
2020/12/30 02:11:26;;;;;;;;;;;;;;;;;;5015101;28;1212;-69
2020/12/30 02:14:02;;;;;;;;;;;;;;;;;;5014935;28;1405;-69
2020/12/30 02:16:27;;;;;;;;;;;;;;;;;;5016287;28;1323;-71
2020/12/30 02:18:53;;;;;;;;;;;;;;;;;;5015419;28;1136;-69
2020/12/30 02:21:18;;;;;;;;;;;;;;;;;;5015905;28;786;-73
2020/12/30 02:23:44;;;;;;;;;;;;;;;;;;5016073;28;967;-70
2020/12/30 02:26:09;;;;;;;;;;;;;;;;;;5016091;28;1351;-69
2020/12/30 02:28:34;;;;;;;;;;;;;;;;;;5015844;28;1960;-70
2020/12/30 02:30:59;;;;;;;;;;;;;;;;;;5014427;28;1705;-70
2020/12/30 02:33:25;;;;;;;;;;;;;;;;;;5016030;28;874;-71
2020/12/30 02:35:51;;;;;;;;;;;;;;;;;;5014791;28;1385;-71
2020/12/30 02:38:16;;;;;;;;;;;;;;;;;;5015887;28;861;-68
2020/12/30 02:40:41;;;;;;;;;;;;;;;;;;5014726;28;877;-70
2020/12/30 02:43:06;;;;;;;;;;;;;;;;;;5015490;28;786;-69
2020/12/30 02:45:32;;;;;;;;;;;;;;;;;;5014357;28;1350;-73
2020/12/30 02:47:57;;;;;;;;;;;;;;;;;;5015674;28;1960;-72
2020/12/30 02:50:22;;;;;;;;;;;;;;;;;;5015611;28;928;-72
2020/12/30 02:52:47;;;;;;;;;;;;;;;;;;5014904;28;897;-70
2020/12/30 02:55:13;;;;;;;;;;;;;;;;;;5014590;28;1302;-71
2020/12/30 02:57:38;;;;;;;;;;;;;;;;;;5014335;28;802;-71
2020/12/30 03:00:03;;;;;;;;;;;;;;;;;;5015297;28;857;-70
2020/12/30 03:02:28;;;;;;;;;;;;;;;;;;5015820;28;875;-71
2020/12/30 03:04:54;;;;;;;;;;;;;;;;;;5015322;28;1294;-71
2020/12/30 03:07:19;;;;;;;;;;;;;;;;;;5013904;28;2003;-70
2020/12/30 03:09:44;;;;;;;;;;;;;;;;;;5015151;28;973;-71
2020/12/30 03:12:10;;;;;;;;;;;;;;;;;;5015388;28;809;-73
2020/12/30 03:14:35;;;;;;;;;;;;;;;;;;5013997;28;1327;-71
2020/12/30 03:17:00;;;;;;;;;;;;;;;;;;5015269;28;887;-73
2020/12/30 03:19:26;;;;;;;;;;;;;;;;;;5015069;28;894;-68
2020/12/30 03:21:52;;;;;;;;;;;;;;;;;;5013973;28;1251;-69
2020/12/30 03:24:17;;;;;;;;;;;;;;;;;;5013845;28;1710;-72
2020/12/30 03:26:43;;;;;;;;;;;;;;;;;;5015342;28;960;-70
2020/12/30 03:29:08;;;;;;;;;;;;;;;;;;5014979;28;1894;-71
2020/12/30 03:31:33;;;;;;;;;;;;;;;;;;5014953;28;913;-72
2020/12/30 03:34:00;;;;;;;;;;;;;;;;;;5014867;28;893;-69
2020/12/30 03:36:25;;;;;;;;;;;;;;;;;;5014843;28;1350;-70
2020/12/30 03:38:50;;;;;;;;;;;;;;;;;;5014947;28;888;-68
2020/12/30 03:41:16;;;;;;;;;;;;;;;;;;5013763;28;1384;-70
2020/12/30 03:43:41;;;;;;;;;;;;;;;;;;5014953;28;817;-71
2020/12/30 03:46:06;;;;;;;;;;;;;;;;;;5014577;28;1334;-73
2020/12/30 03:48:31;;;;;;;;;;;;;;;;;;5013576;28;1965;-71
2020/12/30 03:50:57;;;;;;;;;;;;;;;;;;5013519;28;1365;-71
2020/12/30 03:53:22;;;;;;;;;;;;;;;;;;5014961;28;852;-70
2020/12/30 03:55:47;;;;;;;;;;;;;;;;;;5013855;28;1366;-70
2020/12/30 03:58:12;;;;;;;;;;;;;;;;;;5013432;28;1291;-70
2020/12/30 04:00:37;;;;;;;;;;;;;;;;;;5014318;28;956;-71
2020/12/30 04:03:03;;;;;;;;;;;;;;;;;;5014753;28;805;-71
2020/12/30 04:05:28;;;;;;;;;;;;;;;;;;5016319;28;1402;-70
2020/12/30 04:07:53;;;;;;;;;;;;;;;;;;5017594;28;1886;-72
2020/12/30 04:10:19;;;;;;;;;;;;;;;;;;5018455;28;793;-73
2020/12/30 04:12:44;;;;;;;;;;;;;;;;;;5017627;28;1275;-70
2020/12/30 04:15:09;;;;;;;;;;;;;;;;;;5018584;28;1402;-70
2020/12/30 04:17:34;;;;;;;;;;;;;;;;;;5018663;28;1089;-71
2020/12/30 04:20:00;;;;;;;;;;;;;;;;;;5018332;28;854;-71
2020/12/30 04:22:25;;;;;;;;;;;;;;;;;;5016924;28;972;-69
2020/12/30 04:24:50;;;;;;;;;;;;;;;;;;5018331;28;1409;-72
2020/12/30 04:27:15;;;;;;;;;;;;;;;;;;5018321;28;1915;-71
2020/12/30 04:29:41;;;;;;;;;;;;;;;;;;5018006;28;869;-70
2020/12/30 04:32:06;;;;;;;;;;;;;;;;;;5017046;28;980;-72
2020/12/30 04:34:31;;;;;;;;;;;;;;;;;;5018363;28;1361;-69
2020/12/30 04:36:57;;;;;;;;;;;;;;;;;;5016798;28;1230;-69
2020/12/30 04:39:22;;;;;;;;;;;;;;;;;;5018075;28;841;-70
2020/12/30 04:41:47;;;;;;;;;;;;;;;;;;5016811;28;1204;-70
2020/12/30 04:44:14;;;;;;;;;;;;;;;;;;5017951;28;1318;-72
2020/12/30 04:46:41;;;;;;;;;;;;;;;;;;5017967;28;980;-73
2020/12/30 04:49:06;;;;;;;;;;;;;;;;;;5018002;28;1898;-73
2020/12/30 04:51:32;;;;;;;;;;;;;;;;;;5017742;28;814;-72
2020/12/30 04:54:00;;;;;;;;;;;;;;;;;;5017715;28;983;-68
2020/12/30 04:56:36;;;;;;;;;;;;;;;;;;5017868;28;1310;-72
2020/12/30 04:59:02;;;;;;;;;;;;;;;;;;5016836;28;877;-68
2020/12/30 05:01:31;;;;;;;;;;;;;;;;;;5016665;28;834;-71
2020/12/30 05:03:57;;;;;;;;;;;;;;;;;;5017805;28;806;-71
2020/12/30 05:06:23;;;;;;;;;;;;;;;;;;5016214;28;1479;-71
2020/12/30 05:08:52;;;;;;;;;;;;;;;;;;5016198;28;1960;-70
2020/12/30 05:11:20;;;;;;;;;;;;;;;;;;5017354;28;885;-71
2020/12/30 05:13:45;;;;;;;;;;;;;;;;;;5017507;28;905;-71
2020/12/30 05:16:10;;;;;;;;;;;;;;;;;;5016808;28;1405;-70
2020/12/30 05:18:39;;;;;;;;;;;;;;;;;;5017416;28;917;-70
2020/12/30 05:21:05;;;;;;;;;;;;;;;;;;5015739;28;1637;-69
2020/12/30 05:23:31;;;;;;;;;;;;;;;;;;5016209;28;948;-68
2020/12/30 05:25:58;;;;;;;;;;;;;;;;;;5015950;28;2120;-70
2020/12/30 05:28:23;;;;;;;;;;;;;;;;;;5016046;28;1906;-67
2020/12/30 05:30:49;;;;;;;;;;;;;;;;;;5017242;28;817;-69
2020/12/30 05:33:15;;;;;;;;;;;;;;;;;;5015719;28;1326;-72
2020/12/30 05:35:40;;;;;;;;;;;;;;;;;;5015761;28;1444;-69
2020/12/30 05:38:05;;;;;;;;;;;;;;;;;;5017095;28;852;-70
2020/12/30 05:40:32;;;;;;;;;;;;;;;;;;5015949;28;1147;-70
2020/12/30 05:43:11;;;;;;;;;;;;;;;;;;5017399;28;892;-70
2020/12/30 05:46:03;;;;;;;;;;;;;;;;;;5016712;28;1393;-68
2020/12/30 05:48:33;;;;;;;;;;;;;;;;;;5012803;28;1894;-71
2020/12/30 05:50:59;;;;;;;;;;;;;;;;;;5015706;28;1188;-70
2020/12/30 05:53:24;;;;;;;;;;;;;;;;;;5016868;28;889;-72
2020/12/30 05:55:50;;;;;;;;;;;;;;;;;;5016449;28;1408;-68
2020/12/30 05:58:16;;;;;;;;;;;;;;;;;;5016856;28;886;-69
2020/12/30 06:00:41;;;;;;;;;;;;;;;;;;5016466;28;1240;-71
2020/12/30 06:03:07;;;;;;;;;;;;;;;;;;5016700;28;845;-69
2020/12/30 06:05:33;;;;;;;;;;;;;;;;;;5015251;28;1437;-69
2020/12/30 06:07:58;;;;;;;;;;;;;;;;;;5014935;28;1966;-70
2020/12/30 06:10:24;;;;;;;;;;;;;;;;;;5016444;28;857;-69
2020/12/30 06:13:01;;;;;;;;;;;;;;;;;;5016498;28;888;-67
2020/12/30 06:15:27;;;;;;;;;;;;;;;;;;5014947;28;1448;-68
2020/12/30 06:17:52;;;;;;;;;;;;;;;;;;5016015;28;924;-70
2020/12/30 06:20:22;;;;;;;;;;;;;;;;;;5016043;28;877;-69
2020/12/30 06:22:54;;;;;;;;;;;;;;;;;;5016115;28;951;-69
2020/12/30 06:25:20;;;;;;;;;;;;;;;;;;5015076;28;1365;-70
2020/12/30 06:27:47;;;;;;;;;;;;;;;;;;5015227;28;1907;-70
2020/12/30 06:30:12;;;;;;;;;;;;;;;;;;5015642;28;845;-70
2020/12/30 06:32:38;;;;;;;;;;;;;;;;;;5014933;28;1315;-70
2020/12/30 06:35:03;;;;;;;;;;;;;;;;;;5015907;28;1346;-71
2020/12/30 06:37:29;;;;;;;;;;;;;;;;;;5016111;28;874;-68
2020/12/30 06:40:13;;;;;;;;;;;;;;;;;;5015542;28;877;-71
2020/12/30 06:42:38;;;;;;;;;;;;;;;;;;5015807;28;865;-71
2020/12/30 06:45:04;;;;;;;;;;;;;;;;;;5015473;28;1295;-68
2020/12/30 06:47:49;;;;;;;;;;;;;;;;;;5015514;28;1898;-69
2020/12/30 06:50:15;;;;;;;;;;;;;;;;;;5015499;28;1060;-68
2020/12/30 06:52:40;;;;;;;;;;;;;;;;;;5014400;28;853;-68
2020/12/30 06:55:05;;;;;;;;;;;;;;;;;;5015580;28;1314;-69
2020/12/30 06:57:37;;;;;;;;;;;;;;;;;;5014167;28;1305;-71
2020/12/30 07:00:21;;;;;;;;;;;;;;;;;;5014208;28;1218;-69
2020/12/30 07:03:06;;;;;;;;;;;;;;;;;;5015298;28;865;-68
2020/12/30 07:05:31;;;;;;;;;;;;;;;;;;5014155;28;1455;-68
2020/12/30 07:07:56;;;;;;;;;;;;;;;;;;5015281;28;1959;-69
2020/12/30 07:10:24;;;;;;;;;;;;;;;;;;5015280;28;896;-67
2020/12/30 07:12:50;;;;;;;;;;;;;;;;;;5015466;28;803;-69
2020/12/30 07:15:23;;;;;;;;;;;;;;;;;;5015240;28;1346;-68
2020/12/30 07:17:48;;;;;;;;;;;;;;;;;;5014144;28;1670;-67
2020/12/30 07:20:20;;;;;;;;;;;;;;;;;;5013745;28;890;-69
2020/12/30 07:22:46;;;;;;;;;;;;;;;;;;5013866;28;1191;-68
2020/12/30 07:25:13;;;;;;;;;;;;;;;;;;5013935;28;1374;-70
2020/12/30 07:27:39;;;;;;;;;;;;;;;;;;5014980;28;1910;-70
2020/12/30 07:30:05;;;;;;;;;;;;;;;;;;5014943;28;889;-68
2020/12/30 07:32:31;;;;;;;;;;;;;;;;;;5013814;28;1116;-68
2020/12/30 07:34:56;;;;;;;;;;;;;;;;;;5013689;28;1358;-67
2020/12/30 07:37:21;;;;;;;;;;;;;;;;;;5015081;28;880;-68
2020/12/30 07:39:47;;;;;;;;;;;;;;;;;;5014669;28;1043;-70
2020/12/30 07:42:16;;;;;;;;;;;;;;;;;;5013752;28;1339;-71
2020/12/30 07:44:48;;;;;;;;;;;;;;;;;;5014539;28;1302;-70
2020/12/30 07:47:14;;;;;;;;;;;;;;;;;;5014853;28;921;-69
2020/12/30 07:49:39;;;;;;;;;;;;;;;;;;5013367;28;1955;-69
2020/12/30 07:52:05;;;;;;;;;;;;;;;;;;5014907;28;901;-69
2020/12/30 07:54:30;;;;;;;;;;;;;;;;;;5013457;28;1425;-70
2020/12/30 07:57:12;;;;;;;;;;;;;;;;;;5014626;28;1067;-67
2020/12/30 07:59:40;;;;;;;;;;;;;;;;;;5014521;28;861;-68
2020/12/30 08:02:06;;;;;;;;;;;;;;;;;;5014835;28;889;-70
2020/12/30 08:04:36;;;;;;;;;;;;;;;;;;5013466;28;1454;-70
2020/12/30 08:07:02;;;;;;;;;;;;;;;;;;5013469;28;1401;-69
2020/12/30 08:09:37;;;;;;;;;;;;;;;;;;5014325;28;1961;-70
2020/12/30 08:12:06;;;;;;;;;;;;;;;;;;5014753;28;876;-68
2020/12/30 08:14:36;;;;;;;;;;;;;;;;;;5013201;28;1449;-68
2020/12/30 08:17:07;;;;;;;;;;;;;;;;;;5013371;28;1805;-68
2020/12/30 08:19:38;;;;;;;;;;;;;;;;;;5014398;28;885;-70
2020/12/30 08:22:07;;;;;;;;;;;;;;;;;;5014496;28;861;-69
2020/12/30 08:24:33;;;;;;;;;;;;;;;;;;5014514;28;1405;-70
2020/12/30 08:26:59;;;;;;;;;;;;;;;;;;5013198;28;1738;-69
2020/12/30 08:29:28;;;;;;;;;;;;;;;;;;5014246;28;1894;-69
2020/12/30 08:31:56;;;;;;;;;;;;;;;;;;5014393;28;1014;-68
2020/12/30 08:34:23;;;;;;;;;;;;;;;;;;5013070;28;1485;-68
2020/12/30 08:36:53;;;;;;;;;;;;;;;;;;5014259;28;901;-69
2020/12/30 08:39:22;;;;;;;;;;;;;;;;;;5014429;28;1004;-68
2020/12/30 08:41:49;;;;;;;;;;;;;;;;;;5014315;28;857;-68
2020/12/30 08:44:17;;;;;;;;;;;;;;;;;;5014177;28;1337;-69
2020/12/30 08:46:44;;;;;;;;;;;;;;;;;;5014076;28;853;-68
2020/12/30 08:49:11;;;;;;;;;;;;;;;;;;5014227;28;1961;-70
2020/12/30 08:51:37;;;;;;;;;;;;;;;;;;5014492;28;2231;-70
2020/12/30 08:54:13;;;;;;;;;;;;;;;;;;5018018;28;872;-70
2020/12/30 08:56:39;;;;;;;;;;;;;;;;;;5017787;28;803;-70
2020/12/30 08:59:04;;;;;;;;;;;;;;;;;;5017728;28;996;-69
2020/12/30 09:01:30;;;;;;;;;;;;;;;;;;5017670;28;921;-68
2020/12/30 09:04:07;;;;;;;;;;;;;;;;;;5016513;28;1198;-69
2020/12/30 09:06:33;;;;;;;;;;;;;;;;;;5016082;28;1492;-69
2020/12/30 09:09:08;;;;;;;;;;;;;;;;;;5016478;28;1894;-69
2020/12/30 09:11:34;;;;;;;;;;;;;;;;;;5017489;28;814;-69
2020/12/30 09:14:11;;;;;;;;;;;;;;;;;;5016339;28;1410;-69
2020/12/30 09:16:49;;;;;;;;;;;;;;;;;;5017595;28;944;-70
2020/12/30 09:19:21;;;;;;;;;;;;;;;;;;5016736;28;1144;-70
2020/12/30 09:21:46;;;;;;;;;;;;;;;;;;5017146;28;924;-68
2020/12/30 09:24:15;;;;;;;;;;;;;;;;;;5017356;28;1353;-70
2020/12/30 09:26:40;;;;;;;;;;;;;;;;;;5017234;28;793;-70
2020/12/30 09:29:25;;;;;;;;;;;;;;;;;;5016142;28;1902;-68
2020/12/30 09:31:51;;;;;;;;;;;;;;;;;;5015567;28;1111;-70
2020/12/30 09:34:17;;;;;;;;;;;;;;;;;;5017088;28;1322;-69
2020/12/30 09:36:53;;;;;;;;;;;;;;;;;;5015696;28;1578;-70
2020/12/30 09:39:18;;;;;;;;;;;;;;;;;;5017188;28;893;-68
2020/12/30 09:41:43;;;;;;;;;;;;;;;;;;5017035;28;882;-69
2020/12/30 09:44:09;;;;;;;;;;;;;;;;;;5017036;28;968;-69
2020/12/30 09:46:34;;;;;;;;;;;;;;;;;;5016724;28;968;-70
2020/12/30 09:49:00;;;;;;;;;;;;;;;;;;5016925;28;1898;-69
2020/12/30 09:51:25;;;;;;;;;;;;;;;;;;5015415;28;1342;-68
2020/12/30 09:53:51;;;;;;;;;;;;;;;;;;5015355;28;2514;-69
2020/12/30 09:56:17;;;;;;;;;;;;;;;;;;5016671;28;1302;-69
2020/12/30 09:58:42;;;;;;;;;;;;;;;;;;5016502;28;1149;-69
2020/12/30 10:01:07;;;;;;;;;;;;;;;;;;5016728;28;821;-69
2020/12/30 10:03:32;;;;;;;;;;;;;;;;;;5016404;28;921;-68
2020/12/30 10:05:58;;;;;;;;;;;;;;;;;;5015245;28;1358;-70
2020/12/30 10:08:23;;;;;;;;;;;;;;;;;;5016546;28;1906;-69
2020/12/30 10:10:48;;;;;;;;;;;;;;;;;;5016353;28;826;-70
2020/12/30 10:13:13;;;;;;;;;;;;;;;;;;5016404;28;774;-70
2020/12/30 10:15:39;;;;;;;;;;;;;;;;;;5014842;28;1464;-68
2020/12/30 10:18:04;;;;;;;;;;;;;;;;;;5015490;28;935;-68
2020/12/30 10:20:29;;;;;;;;;;;;;;;;;;5016216;28;877;-70
2020/12/30 10:22:54;;;;;;;;;;;;;;;;;;5014939;28;1224;-69
2020/12/30 10:25:20;;;;;;;;;;;;;;;;;;5014951;28;1447;-69
2020/12/30 10:27:45;;;;;;;;;;;;;;;;;;5014745;28;1890;-69
2020/12/30 10:30:11;;;;;;;;;;;;;;;;;;5015981;28;1198;-69
2020/12/30 10:32:36;;;;;;;;;;;;;;;;;;5016236;28;889;-69
2020/12/30 10:35:02;;;;;;;;;;;;;;;;;;5014687;28;1405;-68
2020/12/30 10:37:28;;;;;;;;;;;;;;;;;;5015911;28;890;-69
2020/12/30 10:39:53;;;;;;;;;;;;;;;;;;5015955;28;897;-68
2020/12/30 10:42:18;;;;;;;;;;;;;;;;;;5014684;28;940;-68
2020/12/30 10:44:44;;;;;;;;;;;;;;;;;;5015752;28;1353;-70
2020/12/30 10:47:09;;;;;;;;;;;;;;;;;;5014628;28;1549;-70
2020/12/30 10:49:34;;;;;;;;;;;;;;;;;;5015332;28;1910;-68
2020/12/30 10:51:59;;;;;;;;;;;;;;;;;;5015702;28;909;-69
2020/12/30 10:54:25;;;;;;;;;;;;;;;;;;5014553;28;1682;-68
2020/12/30 10:56:51;;;;;;;;;;;;;;;;;;5015696;28;885;-69
2020/12/30 10:59:17;;;;;;;;;;;;;;;;;;5015569;28;1331;-70
2020/12/30 11:01:42;;;;;;;;;;;;;;;;;;5014070;28;1183;-70
2020/12/30 11:04:08;;;;;;;;;;;;;;;;;;5015593;28;917;-69
2020/12/30 11:06:33;;;;;;;;;;;;;;;;;;5015484;28;1311;-68
2020/12/30 11:08:58;;;;;;;;;;;;;;;;;;5014376;28;1894;-68
2020/12/30 11:11:24;;;;;;;;;;;;;;;;;;5015075;28;849;-69
2020/12/30 11:13:49;;;;;;;;;;;;;;;;;;5015252;28;1347;-69
2020/12/30 11:16:14;;;;;;;;;;;;;;;;;;5015203;28;1425;-70
2020/12/30 11:18:39;;;;;;;;;;;;;;;;;;5014099;28;893;-68
2020/12/30 11:21:05;;;;;;;;;;;;;;;;;;5013814;28;845;-68
2020/12/30 11:23:30;;;;;;;;;;;;;;;;;;5013814;28;1217;-68
2020/12/30 11:25:55;;;;;;;;;;;;;;;;;;5015058;28;1390;-68
2020/12/30 11:28:21;;;;;;;;;;;;;;;;;;5013871;28;1898;-70
2020/12/30 11:30:46;;;;;;;;;;;;;;;;;;5014923;28;913;-68
2020/12/30 11:33:11;;;;;;;;;;;;;;;;;;5014160;28;1295;-68
2020/12/30 11:35:38;;;;;;;;;;;;;;;;;;5014743;28;1338;-69
2020/12/30 11:38:04;;;;;;;;;;;;;;;;;;5014892;28;865;-70
2020/12/30 11:40:29;;;;;;;;;;;;;;;;;;5014962;28;905;-68
2020/12/30 11:42:54;;;;;;;;;;;;;;;;;;5014869;28;854;-67
2020/12/30 11:45:20;;;;;;;;;;;;;;;;;;5014841;28;1350;-67
2020/12/30 11:47:45;;;;;;;;;;;;;;;;;;5013736;28;1907;-69
2020/12/30 11:50:10;;;;;;;;;;;;;;;;;;5014523;28;995;-68
2020/12/30 11:52:36;;;;;;;;;;;;;;;;;;5013409;28;949;-69
2020/12/30 11:55:01;;;;;;;;;;;;;;;;;;5014789;28;1307;-70
2020/12/30 11:57:27;;;;;;;;;;;;;;;;;;5014661;28;826;-69
2020/12/30 11:59:53;;;;;;;;;;;;;;;;;;5014695;28;814;-70
2020/12/30 12:02:18;;;;;;;;;;;;;;;;;;5013209;28;1189;-68
2020/12/30 12:04:43;;;;;;;;;;;;;;;;;;5014655;28;1298;-70
2020/12/30 12:07:08;;;;;;;;;;;;;;;;;;5014767;28;1039;-70
2020/12/30 12:09:34;;;;;;;;;;;;;;;;;;5014489;28;1902;-69
2020/12/30 12:11:59;;;;;;;;;;;;;;;;;;5013191;28;1000;-69
2020/12/30 12:14:24;;;;;;;;;;;;;;;;;;5014260;28;1342;-69
2020/12/30 12:16:53;;;;;;;;;;;;;;;;;;5014587;28;873;-68
2020/12/30 12:19:18;;;;;;;;;;;;;;;;;;5014632;28;1047;-69
2020/12/30 12:21:44;;;;;;;;;;;;;;;;;;5014054;28;884;-69
2020/12/30 12:24:09;;;;;;;;;;;;;;;;;;5013151;28;1374;-68
2020/12/30 12:26:35;;;;;;;;;;;;;;;;;;5016213;28;822;-70
2020/12/30 12:29:00;;;;;;;;;;;;;;;;;;5017905;28;1981;-69
2020/12/30 12:31:26;;;;;;;;;;;;;;;;;;5018336;28;893;-67
2020/12/30 12:33:51;;;;;;;;;;;;;;;;;;5018288;28;921;-68
2020/12/30 12:36:17;;;;;;;;;;;;;;;;;;5017995;28;1436;-68
2020/12/30 12:38:42;;;;;;;;;;;;;;;;;;5018156;28;845;-68
2020/12/30 12:41:08;;;;;;;;;;;;;;;;;;5017609;28;897;-67
2020/12/30 12:43:33;;;;;;;;;;;;;;;;;;5017979;28;762;-67
2020/12/30 12:45:58;;;;;;;;;;;;;;;;;;5016577;28;1374;-67
2020/12/30 12:48:24;;;;;;;;;;;;;;;;;;5018019;28;1951;-67
2020/12/30 12:50:49;;;;;;;;;;;;;;;;;;5016900;28;980;-67
2020/12/30 12:53:14;;;;;;;;;;;;;;;;;;5017671;28;822;-67
2020/12/30 12:55:40;;;;;;;;;;;;;;;;;;5017706;28;1442;-66
2020/12/30 12:58:05;;;;;;;;;;;;;;;;;;5017620;28;878;-66
2020/12/30 13:00:30;;;;;;;;;;;;;;;;;;5017766;28;872;-67
2020/12/30 13:02:56;;;;;;;;;;;;;;;;;;5017556;28;905;-67
2020/12/30 13:05:21;;;;;;;;;;;;;;;;;;5016689;28;1389;-67
2020/12/30 13:07:46;;;;;;;;;;;;;;;;;;5016159;28;1894;-67
2020/12/30 13:10:12;;;;;;;;;;;;;;;;;;5017495;28;924;-67
2020/12/30 13:12:37;;;;;;;;;;;;;;;;;;5017601;28;889;-67
2020/12/30 13:15:03;;;;;;;;;;;;;;;;;;5015854;28;1464;-67
2020/12/30 13:17:28;;;;;;;;;;;;;;;;;;5016178;28;842;-67
2020/12/30 13:19:53;;;;;;;;;;;;;;;;;;5017240;28;905;-67
2020/12/30 13:22:20;;;;;;;;;;;;;;;;;;5017183;28;968;-67
2020/12/30 13:24:45;;;;;;;;;;;;;;;;;;5017321;28;1420;-67
2020/12/30 13:27:10;;;;;;;;;;;;;;;;;;5028667;28;1862;-68
2020/12/30 13:29:36;;;;;;;;;;;;;;;;;;5035270;28;1968;-68
2020/12/30 13:32:01;;;;;;;;;;;;;;;;;;5036875;28;880;-68
2020/12/30 13:34:26;;;;;;;;;;;;;;;;;;5036616;28;1377;-69
2020/12/30 13:36:51;;;;;;;;;;;;;;;;;;5036388;28;967;-69
2020/12/30 13:39:17;;;;;;;;;;;;;;;;;;5036865;28;865;-68
2020/12/30 13:41:42;;;;;;;;;;;;;;;;;;5035432;28;944;-69
2020/12/30 13:44:07;;;;;;;;;;;;;;;;;;5035491;28;1388;-69
2020/12/30 13:46:33;;;;;;;;;;;;;;;;;;5035389;28;1429;-69
2020/12/30 13:48:58;;;;;;;;;;;;;;;;;;5036797;28;1898;-69
2020/12/30 13:51:23;;;;;;;;;;;;;;;;;;5035258;28;897;-69
2020/12/30 13:53:49;;;;;;;;;;;;;;;;;;5033739;28;1279;-69
2020/12/30 13:56:23;;;;;;;;;;;;;;;;;;5016759;28;1468;-69
2020/12/30 13:58:48;;;;;;;;;;;;;;;;;;5015432;28;1042;-69
2020/12/30 14:01:14;;;;;;;;;;;;;;;;;;5016509;28;847;-69
2020/12/30 14:03:39;;;;;;;;;;;;;;;;;;5016669;28;956;-69
2020/12/30 14:06:04;;;;;;;;;;;;;;;;;;5016268;28;1326;-67
2020/12/30 14:08:30;;;;;;;;;;;;;;;;;;5016666;28;1965;-67
2020/12/30 14:10:55;;;;;;;;;;;;;;;;;;5016124;28;1032;-67
2020/12/30 14:13:20;;;;;;;;;;;;;;;;;;5016348;28;905;-68
2020/12/30 14:15:45;;;;;;;;;;;;;;;;;;5015024;28;1460;-69
2020/12/30 14:18:11;;;;;;;;;;;;;;;;;;5014955;28;928;-69
2020/12/30 14:20:36;;;;;;;;;;;;;;;;;;5016052;28;889;-69
2020/12/30 14:23:02;;;;;;;;;;;;;;;;;;5014725;28;833;-69
2020/12/30 14:25:28;;;;;;;;;;;;;;;;;;5016029;28;1342;-69
2020/12/30 14:27:53;;;;;;;;;;;;;;;;;;5014692;28;1907;-69
2020/12/30 14:30:19;;;;;;;;;;;;;;;;;;5015989;28;790;-69
2020/12/30 14:32:44;;;;;;;;;;;;;;;;;;5018151;28;1599;-69
2020/12/30 14:35:09;;;;;;;;;;;;;;;;;;5035678;28;1449;-69
2020/12/30 14:37:38;;;;;;;;;;;;;;;;;;5034352;28;921;-69
2020/12/30 14:40:06;;;;;;;;;;;;;;;;;;5035167;28;802;-69
2020/12/30 14:42:31;;;;;;;;;;;;;;;;;;5035636;28;896;-69
2020/12/30 14:44:57;;;;;;;;;;;;;;;;;;5035434;28;1417;-69
2020/12/30 14:47:22;;;;;;;;;;;;;;;;;;5034683;28;1280;-69
2020/12/30 14:49:47;;;;;;;;;;;;;;;;;;5034323;28;1890;-69
2020/12/30 14:52:13;;;;;;;;;;;;;;;;;;5035595;28;822;-69
2020/12/30 14:54:38;;;;;;;;;;;;;;;;;;5035191;28;1330;-70
2020/12/30 14:57:03;;;;;;;;;;;;;;;;;;5034117;28;1184;-69
2020/12/30 14:59:28;;;;;;;;;;;;;;;;;;5033998;28;1195;-68
2020/12/30 15:01:54;;;;;;;;;;;;;;;;;;5033970;28;876;-69
2020/12/30 15:04:19;;;;;;;;;;;;;;;;;;5035216;28;1345;-69
2020/12/30 15:06:45;;;;;;;;;;;;;;;;;;5035392;28;837;-69
2020/12/30 15:09:10;;;;;;;;;;;;;;;;;;5033765;28;1898;-69
2020/12/30 15:11:35;;;;;;;;;;;;;;;;;;5033839;28;869;-69
2020/12/30 15:14:01;;;;;;;;;;;;;;;;;;5033842;28;1442;-67
2020/12/30 15:16:26;;;;;;;;;;;;;;;;;;5034968;28;1385;-69
2020/12/30 15:18:52;;;;;;;;;;;;;;;;;;5035082;28;821;-69
2020/12/30 15:21:17;;;;;;;;;;;;;;;;;;5034586;28;886;-69
2020/12/30 15:23:42;;;;;;;;;;;;;;;;;;5033556;28;1355;-68
2020/12/30 15:26:08;;;;;;;;;;;;;;;;;;5034863;28;1342;-68
2020/12/30 15:28:34;;;;;;;;;;;;;;;;;;5034550;28;1899;-69
2020/12/30 15:30:59;;;;;;;;;;;;;;;;;;5033637;28;916;-68
2020/12/30 15:33:25;;;;;;;;;;;;;;;;;;5034931;28;880;-69
2020/12/30 15:35:50;;;;;;;;;;;;;;;;;;5034620;28;1282;-68
2020/12/30 15:38:15;;;;;;;;;;;;;;;;;;5034659;28;972;-69
2020/12/30 15:40:41;;;;;;;;;;;;;;;;;;5033278;28;1216;-67
2020/12/30 15:43:07;;;;;;;;;;;;;;;;;;5034668;28;876;-66
2020/12/30 15:45:32;;;;;;;;;;;;;;;;;;5033228;28;1397;-68
2020/12/30 15:47:58;;;;;;;;;;;;;;;;;;5033280;28;1953;-66
2020/12/30 15:50:23;;;;;;;;;;;;;;;;;;5031183;28;1123;-67
2020/12/30 15:52:48;;;;;;;;;;;;;;;;;;5024961;28;1552;-66
2020/12/30 15:55:13;;;;;;;;;;;;;;;;;;5023938;28;1668;-68
2020/12/30 15:57:39;;;;;;;;;;;;;;;;;;5021019;28;1515;-69
2020/12/30 16:00:04;;;;;;;;;;;;;;;;;;5019871;28;1593;-69
2020/12/30 16:02:30;;;;;;;;;;;;;;;;;;5014666;28;802;-69
2020/12/30 16:04:55;;;;;;;;;;;;;;;;;;5014571;28;1457;-69
2020/12/30 16:07:20;;;;;;;;;;;;;;;;;;5014721;28;984;-68
2020/12/30 16:09:45;;;;;;;;;;;;;;;;;;5014725;28;1965;-70
2020/12/30 16:12:11;;;;;;;;;;;;;;;;;;5014646;28;834;-69
2020/12/30 16:14:36;;;;;;;;;;;;;;;;;;5013555;28;1444;-69
2020/12/30 16:17:01;;;;;;;;;;;;;;;;;;5014609;28;850;-68
2020/12/30 16:19:26;;;;;;;;;;;;;;;;;;5014630;28;995;-69
2020/12/30 16:21:52;;;;;;;;;;;;;;;;;;5013834;28;921;-68
2020/12/30 16:24:17;;;;;;;;;;;;;;;;;;5013748;28;1322;-68
2020/12/30 16:26:42;;;;;;;;;;;;;;;;;;5012671;28;1200;-69
2020/12/30 16:29:07;;;;;;;;;;;;;;;;;;5012581;28;1898;-68
2020/12/30 16:31:38;;;;;;;;;;;;;;;;;;5012374;28;1293;-69
2020/12/30 16:34:04;;;;;;;;;;;;;;;;;;5013953;28;854;-69
2020/12/30 16:36:29;;;;;;;;;;;;;;;;;;5013721;28;1319;-69
2020/12/30 16:38:54;;;;;;;;;;;;;;;;;;5013868;28;909;-69
2020/12/30 16:41:20;;;;;;;;;;;;;;;;;;5013626;28;840;-69
2020/12/30 16:43:45;;;;;;;;;;;;;;;;;;5013771;28;885;-67
2020/12/30 16:46:11;;;;;;;;;;;;;;;;;;5013528;28;1401;-68
2020/12/30 16:48:37;;;;;;;;;;;;;;;;;;5013915;28;1898;-68
2020/12/30 16:51:02;;;;;;;;;;;;;;;;;;5013558;28;878;-69
2020/12/30 16:53:27;;;;;;;;;;;;;;;;;;5013630;28;936;-69
2020/12/30 16:55:53;;;;;;;;;;;;;;;;;;5012353;28;1350;-69
2020/12/30 16:58:19;;;;;;;;;;;;;;;;;;5012332;28;889;-69
2020/12/30 17:00:44;;;;;;;;;;;;;;;;;;5013342;28;983;-69
2020/12/30 17:03:09;;;;;;;;;;;;;;;;;;5012347;28;1212;-68